createdAt,value
2018-03-26T00:01:09.023Z,40.28
2018-03-26T00:03:35.911Z,37.42
2018-03-26T00:06:03.591Z,42.38
2018-03-26T00:08:30.540Z,43.67
2018-03-26T00:10:57.473Z,38.97
2018-03-26T00:13:25.144Z,39.28
2018-03-26T00:15:52.820Z,41.30
2018-03-26T00:18:19.707Z,43.58
2018-03-26T00:20:46.644Z,42.40
2018-03-26T00:23:13.644Z,38.42
2018-03-26T00:25:41.255Z,46.28
2018-03-26T00:28:08.201Z,40.92
2018-03-26T00:30:35.085Z,39.42
2018-03-26T00:33:02.110Z,38.42
2018-03-26T00:35:28.977Z,39.87
2018-03-26T00:37:55.935Z,47.97
2018-03-26T00:40:23.571Z,42.75
2018-03-26T00:42:50.485Z,39.00
2018-03-26T00:45:17.433Z,42.08
2018-03-26T00:47:44.313Z,45.58
2018-03-26T00:50:12.007Z,40.12
2018-03-26T00:52:38.987Z,43.35
2018-03-26T00:55:05.944Z,44.53
2018-03-26T00:57:32.919Z,40.40
2018-03-26T00:59:59.819Z,43.50
2018-03-26T01:02:26.730Z,43.38
2018-03-26T01:04:54.405Z,49.90
2018-03-26T01:07:21.316Z,38.42
2018-03-26T01:09:49.035Z,43.67
2018-03-26T01:12:15.940Z,47.15
2018-03-26T01:14:43.816Z,43.90
2018-03-26T01:17:10.767Z,44.30
2018-03-26T01:19:37.698Z,40.50
2018-03-26T01:22:05.482Z,41.97
2018-03-26T01:24:32.366Z,40.47
2018-03-26T01:26:59.308Z,40.20
2018-03-26T01:29:26.181Z,41.85
2018-03-26T01:31:53.064Z,43.42
2018-03-26T01:34:20.002Z,44.92
2018-03-26T01:36:46.869Z,46.85
2018-03-26T01:39:13.817Z,45.53
2018-03-26T01:41:40.702Z,42.15
2018-03-26T01:44:07.729Z,42.45
2018-03-26T01:46:34.675Z,41.17
2018-03-26T01:49:01.635Z,40.22
2018-03-26T01:51:28.571Z,40.78
2018-03-26T01:53:55.518Z,42.80
2018-03-26T01:56:22.507Z,46.70
2018-03-26T01:58:49.470Z,45.88
2018-03-26T02:01:16.344Z,44.53
2018-03-26T02:03:43.293Z,41.65
2018-03-26T02:06:10.200Z,43.90
2018-03-26T02:08:37.098Z,40.40
2018-03-26T02:11:04.071Z,45.90
2018-03-26T02:13:30.975Z,45.50
2018-03-26T02:15:57.860Z,41.03
2018-03-26T02:18:24.822Z,43.15
2018-03-26T02:20:52.455Z,45.63
2018-03-26T02:23:19.389Z,39.67
2018-03-26T02:25:46.300Z,41.63
2018-03-26T02:28:13.264Z,43.10
2018-03-26T02:30:40.136Z,44.70
2018-03-26T02:33:07.029Z,47.42
2018-03-26T02:35:36.076Z,40.67
2018-03-26T02:38:03.095Z,40.88
2018-03-26T02:40:30.062Z,45.78
2018-03-26T02:42:56.943Z,41.83
2018-03-26T02:45:24.626Z,42.90
2018-03-26T02:47:51.513Z,43.28
2018-03-26T02:50:18.484Z,44.95
2018-03-26T02:52:45.430Z,45.05
2018-03-26T02:55:12.380Z,43.33
2018-03-26T02:57:39.320Z,44.08
2018-03-26T03:00:06.278Z,40.58
2018-03-26T03:02:33.169Z,41.75
2018-03-26T03:05:00.121Z,41.28
2018-03-26T03:07:27.733Z,45.45
2018-03-26T03:09:54.668Z,49.13
2018-03-26T03:12:21.547Z,44.35
2018-03-26T03:14:48.499Z,44.47
2018-03-26T03:17:15.372Z,47.00
2018-03-26T03:19:42.321Z,41.05
2018-03-26T03:22:09.272Z,42.75
2018-03-26T03:24:36.210Z,44.53
2018-03-26T03:27:03.401Z,46.33
2018-03-26T03:29:30.415Z,44.97
2018-03-26T03:31:57.284Z,40.15
2018-03-26T03:34:24.237Z,42.90
2018-03-26T03:36:51.113Z,45.42
2018-03-26T03:39:18.067Z,38.33
2018-03-26T03:41:45.079Z,43.38
2018-03-26T03:44:11.959Z,45.67
2018-03-26T03:46:38.932Z,44.20
2018-03-26T03:49:05.874Z,42.80
2018-03-26T03:51:32.757Z,46.10
2018-03-26T03:53:59.709Z,43.08
2018-03-26T03:56:26.687Z,47.58
2018-03-26T03:58:53.621Z,44.60
2018-03-26T04:01:20.483Z,44.78
2018-03-26T04:03:47.433Z,45.33
2018-03-26T04:06:14.336Z,43.75
2018-03-26T04:08:41.216Z,44.15
2018-03-26T04:11:08.174Z,47.17
2018-03-26T04:13:35.166Z,47.67
2018-03-26T04:16:02.053Z,44.50
2018-03-26T04:18:29.013Z,44.30
2018-03-26T04:20:55.911Z,45.10
2018-03-26T04:23:22.847Z,47.60
2018-03-26T04:25:51.443Z,51.50
2018-03-26T04:28:35.307Z,41.65
2018-03-26T04:31:03.133Z,53.45
2018-03-26T04:33:30.073Z,44.47
2018-03-26T04:35:56.967Z,46.42
2018-03-26T04:38:24.681Z,46.25
2018-03-26T04:40:51.555Z,48.33
2018-03-26T04:43:19.243Z,53.85
2018-03-26T04:45:46.121Z,47.25
2018-03-26T04:48:13.071Z,51.30
2018-03-26T04:50:39.986Z,50.05
2018-03-26T04:53:06.910Z,41.20
2018-03-26T04:55:34.607Z,47.13
2018-03-26T04:58:01.568Z,48.50
2018-03-26T05:00:28.612Z,52.67
2018-03-26T05:02:55.491Z,48.87
2018-03-26T05:05:22.370Z,49.00
2018-03-26T05:07:49.324Z,48.87
2018-03-26T05:10:16.281Z,63.33
2018-03-26T05:12:43.167Z,54.42
2018-03-26T05:15:10.175Z,64.47
2018-03-26T05:17:37.053Z,59.70
2018-03-26T05:20:04.057Z,58.17
2018-03-26T05:22:31.016Z,48.00
2018-03-26T05:24:57.959Z,51.58
2018-03-26T05:27:24.863Z,48.45
2018-03-26T05:29:51.810Z,50.00
2018-03-26T05:32:18.704Z,52.40
2018-03-26T05:34:45.596Z,52.72
2018-03-26T05:37:12.524Z,49.13
2018-03-26T05:39:39.408Z,51.85
2018-03-26T05:42:06.371Z,53.72
2018-03-26T05:44:33.409Z,51.10
2018-03-26T05:47:00.360Z,47.33
2018-03-26T05:49:27.272Z,53.75
2018-03-26T05:51:54.225Z,55.50
2018-03-26T05:54:21.206Z,53.08
2018-03-26T05:56:48.229Z,47.00
2018-03-26T05:59:17.983Z,55.75
2018-03-26T06:02:00.303Z,49.40
2018-03-26T06:04:27.751Z,49.45
2018-03-26T06:06:58.185Z,52.28
2018-03-26T06:09:27.643Z,48.80
2018-03-26T06:11:55.460Z,49.13
2018-03-26T06:14:23.193Z,51.45
2018-03-26T06:17:05.565Z,53.53
2018-03-26T06:19:37.021Z,44.67
2018-03-26T06:22:09.974Z,52.95
2018-03-26T06:24:37.022Z,52.72
2018-03-26T06:27:09.443Z,48.10
2018-03-26T06:29:38.756Z,55.25
2018-03-26T06:32:06.294Z,48.83
2018-03-26T06:34:34.388Z,56.13
2018-03-26T06:37:18.848Z,49.53
2018-03-26T06:39:46.687Z,49.60
2018-03-26T06:42:15.269Z,51.13
2018-03-26T06:44:42.284Z,49.72
2018-03-26T06:47:09.304Z,50.07
2018-03-26T06:49:36.184Z,54.97
2018-03-26T06:52:03.141Z,49.67
2018-03-26T06:54:30.796Z,51.95
2018-03-26T06:56:58.412Z,46.97
2018-03-26T06:59:26.620Z,53.87
2018-03-26T07:01:55.682Z,49.10
2018-03-26T07:04:22.708Z,49.97
2018-03-26T07:06:52.035Z,49.90
2018-03-26T07:09:19.059Z,50.92
2018-03-26T07:11:49.082Z,51.58
2018-03-26T07:14:23.361Z,51.50
2018-03-26T07:17:00.823Z,50.70
2018-03-26T07:19:33.618Z,54.38
2018-03-26T07:22:04.239Z,50.05
2018-03-26T07:24:31.384Z,51.60
2018-03-26T07:27:09.115Z,49.00
2018-03-26T07:29:37.084Z,55.23
2018-03-26T07:32:13.160Z,45.80
2018-03-26T07:34:42.556Z,53.37
2018-03-26T07:37:09.496Z,48.73
2018-03-26T07:39:36.414Z,44.97
2018-03-26T07:42:03.364Z,46.85
2018-03-26T07:44:30.319Z,50.92
2018-03-26T07:46:58.462Z,49.13
2018-03-26T07:49:26.166Z,48.30
2018-03-26T07:51:58.929Z,48.58
2018-03-26T07:54:28.884Z,49.55
2018-03-26T07:56:56.006Z,47.50
2018-03-26T07:59:23.443Z,46.50
2018-03-26T08:01:56.411Z,46.58
2018-03-26T08:04:27.706Z,46.80
2018-03-26T08:06:54.788Z,54.87
2018-03-26T08:09:25.339Z,49.67
2018-03-26T08:11:53.335Z,48.03
2018-03-26T08:14:21.498Z,44.37
2018-03-26T08:16:48.629Z,51.17
2018-03-26T08:19:16.379Z,44.63
2018-03-26T08:21:46.983Z,48.83
2018-03-26T08:24:21.178Z,49.63
2018-03-26T08:26:50.033Z,48.47
2018-03-26T08:29:19.902Z,44.00
2018-03-26T08:31:48.587Z,42.97
2018-03-26T08:34:17.194Z,52.70
2018-03-26T08:36:46.516Z,46.73
2018-03-26T08:39:14.433Z,44.50
2018-03-26T08:41:43.307Z,45.77
2018-03-26T08:44:12.159Z,43.50
2018-03-26T08:46:41.671Z,44.40
2018-03-26T08:49:08.881Z,44.57
2018-03-26T08:51:38.128Z,44.50
2018-03-26T08:54:08.748Z,45.17
2018-03-26T08:56:38.657Z,41.70
2018-03-26T08:59:05.593Z,41.33
2018-03-26T09:01:32.475Z,40.33
2018-03-26T09:04:00.168Z,40.50
2018-03-26T09:06:27.387Z,44.83
2018-03-26T09:09:06.941Z,44.67
2018-03-26T09:11:38.491Z,44.47
2018-03-26T09:14:08.052Z,40.67
2018-03-26T09:16:34.994Z,43.23
2018-03-26T09:19:02.555Z,42.20
2018-03-26T09:21:33.879Z,44.50
2018-03-26T09:24:01.929Z,43.53
2018-03-26T09:26:28.877Z,43.43
2018-03-26T09:28:55.758Z,40.87
2018-03-26T09:31:31.452Z,39.47
2018-03-26T09:33:59.262Z,45.83
2018-03-26T09:36:26.248Z,45.77
2018-03-26T09:38:56.427Z,42.83
2018-03-26T09:41:23.591Z,35.90
2018-03-26T09:43:50.505Z,37.90
2018-03-26T09:46:17.980Z,42.57
2018-03-26T09:48:44.984Z,39.00
2018-03-26T09:51:11.847Z,41.30
2018-03-26T09:53:41.239Z,37.77
2018-03-26T09:56:08.168Z,39.80
2018-03-26T09:58:35.179Z,41.77
2018-03-26T10:01:07.017Z,42.83
2018-03-26T10:03:34.290Z,40.93
2018-03-26T10:06:01.733Z,37.57
2018-03-26T10:08:28.666Z,38.53
2018-03-26T10:10:55.540Z,39.53
2018-03-26T10:13:29.538Z,40.17
2018-03-26T10:15:57.757Z,39.90
2018-03-26T10:18:25.519Z,38.27
2018-03-26T10:20:53.907Z,44.07
2018-03-26T10:23:21.031Z,39.43
2018-03-26T10:25:48.710Z,38.67
2018-03-26T10:28:15.664Z,42.23
2018-03-26T10:30:42.611Z,38.43
2018-03-26T10:33:09.547Z,45.60
2018-03-26T10:35:36.506Z,40.33
2018-03-26T10:38:03.481Z,41.23
2018-03-26T10:40:30.411Z,39.60
2018-03-26T10:43:02.037Z,40.13
2018-03-26T10:45:30.088Z,41.50
2018-03-26T10:48:14.768Z,44.10
2018-03-26T10:50:57.275Z,42.20
2018-03-26T10:56:29.879Z,41.87
2018-03-26T11:07:20.396Z,48.70
2018-03-26T11:09:47.467Z,44.83
2018-03-26T11:18:27.892Z,42.37
2018-03-26T11:29:30.178Z,39.93
2018-03-26T11:32:01.761Z,40.10
2018-03-26T11:34:33.594Z,46.23
2018-03-26T11:37:04.726Z,42.00
2018-03-26T11:39:33.840Z,41.43
2018-03-26T11:42:06.194Z,35.20
2018-03-26T11:44:41.956Z,36.60
2018-03-26T11:47:21.510Z,36.30
2018-03-26T11:49:59.661Z,35.00
2018-03-26T11:52:28.728Z,34.93
2018-03-26T11:55:04.056Z,31.80
2018-03-26T11:57:38.842Z,37.27
2018-03-26T12:00:15.776Z,35.00
2018-03-26T12:02:44.784Z,33.10
2018-03-26T12:05:13.451Z,33.53
2018-03-26T12:07:46.108Z,32.20
2018-03-26T12:10:16.327Z,30.90
2018-03-26T12:12:43.379Z,27.53
2018-03-26T12:15:16.839Z,33.07
2018-03-26T12:17:47.045Z,39.30
2018-03-26T12:20:26.289Z,35.00
2018-03-26T12:22:55.756Z,34.53
2018-03-26T12:25:24.865Z,32.23
2018-03-26T12:28:08.314Z,32.70
2018-03-26T12:30:35.853Z,33.10
2018-03-26T12:33:05.649Z,35.23
2018-03-26T12:35:45.807Z,45.80
2018-03-26T12:38:19.021Z,40.97
2018-03-26T12:40:51.148Z,37.83
2018-03-26T12:43:18.036Z,33.47
2018-03-26T12:45:57.116Z,32.27
2018-03-26T12:48:24.059Z,32.87
2018-03-26T12:51:02.981Z,33.10
2018-03-26T12:53:29.931Z,34.67
2018-03-26T12:55:57.492Z,33.93
2018-03-26T12:58:40.768Z,32.10
2018-03-26T13:01:20.665Z,35.53
2018-03-26T13:03:47.610Z,30.77
2018-03-26T13:06:23.064Z,33.10
2018-03-26T13:08:50.763Z,30.63
2018-03-26T13:11:17.773Z,33.63
2018-03-26T13:13:45.715Z,31.43
2018-03-26T13:16:14.335Z,35.47
2018-03-26T13:18:52.438Z,33.60
2018-03-26T13:21:23.224Z,30.83
2018-03-26T13:23:50.427Z,34.60
2018-03-26T13:26:18.472Z,32.87
2018-03-26T13:28:53.581Z,32.87
2018-03-26T13:31:20.614Z,31.10
2018-03-26T13:33:47.558Z,30.80
2018-03-26T13:36:14.452Z,33.83
2018-03-26T13:38:41.439Z,37.53
2018-03-26T13:41:08.394Z,36.63
2018-03-26T13:43:37.846Z,33.17
2018-03-26T13:46:05.451Z,32.00
2018-03-26T13:48:32.415Z,33.97
2018-03-26T13:50:59.294Z,32.57
2018-03-26T13:53:26.983Z,37.00
2018-03-26T13:55:56.121Z,30.90
2018-03-26T13:58:23.117Z,32.13
2018-03-26T14:00:50.292Z,33.53
2018-03-26T14:03:17.168Z,31.87
2018-03-26T14:05:44.123Z,30.90
2018-03-26T14:08:23.280Z,30.70
2018-03-26T14:11:02.856Z,31.43
2018-03-26T14:13:42.163Z,31.73
2018-03-26T14:16:21.142Z,38.37
2018-03-26T14:18:55.324Z,36.77
2018-03-26T14:21:25.128Z,34.40
2018-03-26T14:23:52.203Z,39.60
2018-03-26T14:26:19.094Z,49.73
2018-03-26T14:28:46.096Z,36.97
2018-03-26T14:31:17.800Z,37.23
2018-03-26T14:33:48.610Z,34.77
2018-03-26T14:36:15.556Z,35.70
2018-03-26T14:38:44.398Z,35.70
2018-03-26T14:41:11.336Z,43.27
2018-03-26T14:43:38.397Z,34.83
2018-03-26T14:46:11.050Z,36.60
2018-03-26T14:48:37.997Z,37.00
2018-03-26T14:51:05.690Z,36.33
2018-03-26T14:53:33.338Z,36.47
2018-03-26T14:56:03.904Z,38.17
2018-03-26T14:58:30.858Z,35.13
2018-03-26T15:00:57.825Z,36.90
2018-03-26T15:03:33.136Z,33.93
2018-03-26T15:06:00.264Z,35.20
2018-03-26T15:08:27.243Z,39.03
2018-03-26T15:10:54.199Z,38.90
2018-03-26T15:13:21.092Z,35.90
2018-03-26T15:15:49.163Z,34.97
2018-03-26T15:18:16.792Z,36.70
2018-03-26T15:20:45.085Z,39.00
2018-03-26T15:23:13.317Z,33.73
2018-03-26T15:25:42.335Z,37.77
2018-03-26T15:28:11.140Z,38.50
2018-03-26T15:30:40.432Z,38.13
2018-03-26T15:33:07.440Z,36.77
2018-03-26T15:35:37.574Z,42.77
2018-03-26T15:38:14.128Z,33.57
2018-03-26T15:40:42.322Z,34.93
2018-03-26T15:43:09.192Z,38.43
2018-03-26T15:45:36.128Z,39.90
2018-03-26T15:48:03.245Z,38.57
2018-03-26T15:50:30.156Z,39.40
2018-03-26T15:52:57.936Z,38.97
2018-03-26T15:55:25.875Z,40.47
2018-03-26T15:57:54.836Z,39.90
2018-03-26T16:00:22.810Z,36.90
2018-03-26T16:02:55.851Z,39.50
2018-03-26T16:05:28.738Z,38.10
2018-03-26T16:08:04.630Z,41.03
2018-03-26T16:10:33.547Z,36.57
2018-03-26T16:13:00.882Z,36.53
2018-03-26T16:15:27.826Z,36.90
2018-03-26T16:17:54.872Z,36.43
2018-03-26T16:20:21.851Z,39.47
2018-03-26T16:22:48.847Z,40.37
2018-03-26T16:25:15.765Z,40.40
2018-03-26T16:27:43.877Z,38.00
2018-03-26T16:30:10.782Z,37.20
2018-03-26T16:32:38.471Z,41.27
2018-03-26T16:35:11.083Z,39.67
2018-03-26T16:37:38.549Z,39.87
2018-03-26T16:40:05.513Z,39.60
2018-03-26T16:42:38.011Z,42.83
2018-03-26T16:45:05.996Z,39.80
2018-03-26T16:47:36.385Z,40.33
2018-03-26T16:50:03.452Z,42.20
2018-03-26T16:52:32.200Z,39.57
2018-03-26T16:54:59.153Z,40.53
2018-03-26T16:57:26.083Z,41.60
2018-03-26T16:59:53.068Z,41.50
2018-03-26T17:02:19.964Z,40.40
2018-03-26T17:04:46.840Z,41.30
2018-03-26T17:07:13.801Z,40.80
2018-03-26T17:09:40.743Z,35.10
2018-03-26T17:12:07.645Z,39.73
2018-03-26T17:14:34.623Z,44.70
2018-03-26T17:17:01.511Z,41.47
2018-03-26T17:19:29.226Z,41.87
2018-03-26T17:21:56.151Z,39.50
2018-03-26T17:24:23.102Z,38.60
2018-03-26T17:26:50.063Z,40.67
2018-03-26T17:29:16.940Z,42.17
2018-03-26T17:31:43.924Z,41.87
2018-03-26T17:34:11.925Z,38.40
2018-03-26T17:36:39.669Z,42.90
2018-03-26T17:39:06.919Z,41.80
2018-03-26T17:41:33.892Z,39.93
2018-03-26T17:44:00.768Z,42.33
2018-03-26T17:46:27.748Z,40.57
2018-03-26T17:48:55.434Z,43.67
2018-03-26T17:51:22.375Z,45.50
2018-03-26T17:53:49.315Z,39.93
2018-03-26T17:56:28.217Z,39.80
2018-03-26T18:01:39.499Z,38.57
2018-03-26T18:04:06.412Z,47.03
2018-03-26T18:06:33.413Z,42.57
2018-03-26T18:09:01.026Z,39.07
2018-03-26T18:11:27.995Z,35.53
2018-03-26T18:13:54.948Z,41.97
2018-03-26T18:16:21.841Z,42.77
2018-03-26T18:18:48.872Z,41.70
2018-03-26T18:21:16.510Z,42.43
2018-03-26T18:23:43.474Z,37.63
2018-03-26T18:26:11.122Z,40.97
2018-03-26T18:28:38.151Z,40.83
2018-03-26T18:31:05.168Z,40.27
2018-03-26T18:33:32.092Z,45.03
2018-03-26T18:35:59.709Z,42.10
2018-03-26T18:38:26.588Z,40.83
2018-03-26T18:40:53.552Z,36.13
2018-03-26T18:43:20.438Z,40.13
2018-03-26T18:45:47.430Z,33.37
2018-03-26T18:48:15.056Z,39.40
2018-03-26T18:50:41.936Z,46.23
2018-03-26T18:53:09.677Z,41.83
2018-03-26T18:55:36.620Z,53.73
2018-03-26T18:58:03.590Z,46.10
2018-03-26T19:00:31.356Z,41.13
2018-03-26T19:02:58.325Z,46.70
2018-03-26T19:05:25.256Z,42.30
2018-03-26T19:07:52.863Z,44.57
2018-03-26T19:10:19.823Z,44.47
2018-03-26T19:12:46.717Z,51.93
2018-03-26T19:15:13.657Z,50.03
2018-03-26T19:17:41.256Z,50.60
2018-03-26T19:20:08.221Z,46.93
2018-03-26T19:22:35.124Z,51.20
2018-03-26T19:25:02.063Z,42.67
2018-03-26T19:27:28.956Z,41.63
2018-03-26T19:29:55.900Z,35.57
2018-03-26T19:32:22.824Z,38.40
2018-03-26T19:34:49.806Z,38.27
2018-03-26T19:37:16.683Z,32.37
2018-03-26T19:39:43.672Z,36.73
2018-03-26T19:42:10.667Z,37.90
2018-03-26T19:44:38.292Z,45.30
2018-03-26T19:47:05.328Z,33.50
2018-03-26T19:49:32.255Z,26.83
2018-03-26T20:06:34.238Z,24.58
2018-03-26T20:09:01.099Z,20.27
2018-03-26T20:11:28.080Z,16.93
2018-03-26T20:13:55.800Z,21.30
2018-03-26T20:16:22.768Z,18.67
2018-03-26T20:18:49.897Z,19.17
2018-03-26T20:21:16.912Z,18.40
2018-03-26T20:23:43.904Z,13.57
2018-03-26T20:26:10.807Z,13.10
2018-03-26T20:28:38.836Z,12.27
2018-03-26T20:31:06.706Z,11.13
2018-03-26T20:33:34.080Z,11.20
2018-03-26T20:36:01.098Z,11.40
2018-03-26T20:38:28.436Z,8.63
2018-03-26T20:40:56.352Z,9.97
2018-03-26T20:43:23.970Z,8.73
2018-03-26T20:45:50.848Z,10.43
2018-03-26T20:48:17.835Z,12.10
2018-03-26T20:50:45.192Z,10.03
2018-03-26T20:53:12.183Z,10.30
2018-03-26T20:55:48.796Z,9.23
2018-03-26T20:58:19.437Z,8.37
2018-03-26T21:00:57.377Z,8.80
2018-03-26T21:03:36.782Z,7.93
2018-03-26T21:06:04.538Z,7.87
2018-03-26T21:08:46.942Z,11.80
2018-03-26T21:11:26.427Z,9.47
2018-03-26T21:14:05.751Z,9.47
2018-03-26T21:16:45.517Z,9.50
2018-03-26T21:19:25.001Z,10.07
2018-03-26T21:22:04.590Z,9.20
2018-03-26T21:24:32.998Z,9.63
2018-03-26T21:27:00.028Z,9.60
2018-03-26T21:29:27.948Z,8.60
2018-03-26T21:31:55.105Z,8.93
2018-03-26T21:34:22.277Z,9.70
2018-03-26T21:36:50.188Z,9.77
2018-03-26T21:39:17.780Z,9.10
2018-03-26T21:41:46.018Z,9.27
2018-03-26T21:44:12.986Z,8.93
2018-03-26T21:46:40.702Z,10.60
2018-03-26T21:49:08.002Z,10.53
2018-03-26T21:51:36.793Z,9.73
2018-03-26T21:54:05.162Z,10.85
2018-03-26T21:56:33.314Z,11.38
2018-03-26T21:59:00.893Z,11.30
2018-03-26T22:01:28.993Z,11.90
2018-03-26T22:03:57.153Z,10.18
2018-03-26T22:06:24.871Z,15.20
2018-03-26T22:08:51.916Z,11.85
2018-03-26T22:11:18.903Z,12.07
2018-03-26T22:13:45.888Z,11.63
2018-03-26T22:16:14.205Z,12.18
2018-03-26T22:18:41.857Z,10.50
2018-03-26T22:21:08.845Z,10.80
2018-03-26T22:23:36.565Z,11.88
2018-03-26T22:26:05.182Z,10.48
2018-03-26T22:28:32.229Z,11.25
2018-03-26T22:30:59.217Z,10.27
2018-03-26T22:33:26.681Z,10.52
2018-03-26T22:35:54.460Z,11.02
2018-03-26T22:38:21.337Z,14.45
2018-03-26T22:40:48.287Z,12.95
2018-03-26T22:43:15.267Z,13.55
2018-03-26T22:45:44.498Z,12.35
2018-03-26T22:48:11.925Z,12.10
2018-03-26T22:50:38.919Z,15.65
2018-03-26T22:53:05.870Z,14.75
2018-03-26T22:55:34.110Z,13.85
2018-03-26T22:58:01.344Z,13.27
2018-03-26T23:00:29.081Z,12.35
2018-03-26T23:02:56.056Z,13.62
2018-03-26T23:05:23.744Z,15.50
2018-03-26T23:07:50.701Z,15.20
2018-03-26T23:10:17.611Z,12.13
2018-03-26T23:12:45.331Z,13.52
2018-03-26T23:15:12.305Z,13.93
2018-03-26T23:17:39.957Z,13.52
2018-03-26T23:20:06.951Z,13.45
2018-03-26T23:22:43.998Z,14.25
2018-03-26T23:25:10.953Z,12.48
2018-03-26T23:27:37.820Z,11.95
2018-03-26T23:30:05.507Z,13.95
2018-03-26T23:32:32.488Z,14.80
2018-03-26T23:34:59.359Z,13.82
2018-03-26T23:37:26.292Z,14.77
2018-03-26T23:39:53.233Z,14.70
2018-03-26T23:42:20.116Z,15.00
2018-03-26T23:44:47.816Z,15.38
2018-03-26T23:47:14.755Z,14.63
2018-03-26T23:49:41.636Z,15.02
2018-03-26T23:52:08.576Z,15.90
2018-03-26T23:54:35.472Z,14.95
2018-03-26T23:57:02.438Z,18.35
2018-03-26T23:59:30.209Z,17.92
